createdAt,value
2018-02-04T07:02:32.045Z,-0.30
2018-02-04T07:05:00.260Z,-0.30
2018-02-04T07:07:28.492Z,-0.40
2018-02-04T07:09:57.469Z,-0.40
2018-02-04T07:12:25.741Z,-0.40
2018-02-04T07:14:53.977Z,-0.40
2018-02-04T07:17:22.197Z,-0.30
2018-02-04T07:19:50.432Z,-0.30
2018-02-04T07:22:20.156Z,-0.30
2018-02-04T07:24:49.168Z,-0.20
2018-02-04T07:27:17.408Z,-0.30
2018-02-04T07:29:45.720Z,-0.20
2018-02-04T07:32:13.995Z,-0.10
2018-02-04T07:34:42.993Z,0.00
2018-02-04T07:37:11.988Z,0.10
2018-02-04T07:39:40.224Z,0.00
2018-02-04T07:42:08.428Z,0.10
2018-02-04T07:44:37.508Z,0.20
2018-02-04T07:47:05.713Z,0.10
2018-02-04T07:49:33.940Z,0.20
2018-02-04T07:52:02.173Z,0.30
2018-02-04T07:54:30.377Z,0.30
2018-02-04T07:56:58.761Z,0.30
2018-02-04T07:59:27.097Z,0.30
2018-02-04T08:01:56.056Z,0.30
2018-02-04T08:04:24.293Z,0.30
2018-02-04T08:06:52.532Z,0.40
2018-02-04T08:09:21.628Z,0.40
2018-02-04T08:11:50.600Z,0.50
2018-02-04T08:14:19.076Z,0.50
2018-02-04T08:16:48.789Z,0.50
2018-02-04T08:19:17.015Z,0.50
2018-02-04T08:21:45.248Z,0.60
2018-02-04T08:24:13.540Z,0.70
2018-02-04T08:26:42.645Z,0.80
2018-02-04T08:29:10.920Z,0.80
2018-02-04T08:31:39.904Z,0.90
2018-02-04T08:34:08.889Z,1.30
2018-02-04T08:36:37.892Z,1.80
2018-02-04T08:39:06.896Z,2.50
2018-02-04T08:41:35.121Z,2.50
2018-02-04T08:44:03.445Z,2.90
2018-02-04T08:46:32.422Z,2.90
2018-02-04T08:49:00.648Z,2.90
2018-02-04T08:51:28.883Z,2.70
2018-02-04T08:53:57.881Z,2.40
2018-02-04T08:56:26.876Z,2.80
2018-02-04T08:58:55.977Z,2.90
2018-02-04T09:01:24.254Z,2.90
2018-02-04T09:03:52.485Z,3.10
2018-02-04T09:06:20.721Z,3.20
2018-02-04T09:08:48.944Z,3.00
2018-02-04T09:11:18.661Z,3.40
2018-02-04T09:13:46.939Z,3.40
2018-02-04T09:16:15.092Z,4.00
2018-02-04T09:18:44.173Z,4.10
2018-02-04T09:21:13.388Z,4.20
2018-02-04T09:23:41.593Z,5.30
2018-02-04T09:26:10.585Z,6.10
2018-02-04T09:28:38.784Z,6.10
2018-02-04T09:31:07.012Z,4.90
2018-02-04T09:33:35.213Z,4.40
2018-02-04T09:36:04.829Z,4.70
2018-02-04T09:38:33.799Z,4.70
2018-02-04T09:41:02.025Z,4.70
2018-02-04T09:43:30.281Z,4.90
2018-02-04T09:45:59.272Z,4.70
2018-02-04T09:48:28.260Z,4.60
2018-02-04T09:50:57.260Z,4.40
2018-02-04T09:53:26.221Z,3.80
2018-02-04T09:55:54.433Z,3.80
2018-02-04T09:58:22.704Z,3.70
2018-02-04T10:00:51.804Z,3.70
2018-02-04T10:03:20.032Z,3.70
2018-02-04T10:05:48.348Z,3.30
2018-02-04T10:08:17.321Z,3.60
2018-02-04T10:10:45.620Z,3.50
2018-02-04T10:13:14.720Z,3.40
2018-02-04T10:15:42.948Z,3.40
2018-02-04T10:18:11.177Z,3.40
2018-02-04T10:20:39.401Z,3.30
2018-02-04T10:23:07.620Z,3.20
2018-02-04T10:25:36.716Z,2.70
2018-02-04T10:28:05.708Z,2.70
2018-02-04T10:30:34.702Z,2.70
2018-02-04T10:33:03.697Z,2.90
2018-02-04T10:35:32.696Z,2.80
2018-02-04T10:38:01.673Z,2.70
2018-02-04T10:40:30.672Z,2.80
2018-02-04T10:42:59.672Z,2.70
2018-02-04T10:45:28.664Z,2.80
2018-02-04T10:47:56.908Z,2.80
2018-02-04T10:50:25.124Z,2.80
2018-02-04T10:52:53.324Z,2.70
2018-02-04T10:55:21.595Z,2.90
2018-02-04T10:57:50.756Z,2.80
2018-02-04T11:00:19.032Z,2.80
2018-02-04T11:02:48.002Z,3.00
2018-02-04T11:05:16.305Z,2.90
2018-02-04T11:07:45.297Z,3.00
2018-02-04T11:10:14.283Z,3.10
2018-02-04T11:12:43.389Z,3.10
2018-02-04T11:15:12.376Z,3.20
2018-02-04T11:17:41.373Z,3.20
2018-02-04T11:20:10.470Z,3.00
2018-02-04T11:22:39.437Z,2.90
2018-02-04T11:25:09.168Z,2.90
2018-02-04T11:27:37.753Z,2.90
2018-02-04T11:30:06.782Z,2.90
2018-02-04T11:32:34.969Z,2.90
2018-02-04T11:35:03.301Z,3.00
2018-02-04T11:37:32.600Z,3.00
2018-02-04T11:40:01.604Z,3.20
2018-02-04T11:42:29.844Z,3.20
2018-02-04T11:44:58.149Z,3.40
2018-02-04T11:47:27.117Z,4.70
2018-02-04T11:49:55.333Z,4.60
2018-02-04T11:52:23.593Z,5.40
2018-02-04T11:54:51.812Z,5.90
2018-02-04T11:57:20.021Z,6.20
2018-02-04T11:59:48.248Z,6.20
2018-02-04T12:02:16.465Z,5.50
2018-02-04T12:04:44.707Z,5.20
2018-02-04T12:07:12.913Z,5.10
2018-02-04T12:09:41.253Z,4.80
2018-02-04T12:12:09.481Z,4.30
2018-02-04T12:14:38.508Z,4.10
2018-02-04T12:17:06.726Z,4.10
2018-02-04T12:19:35.721Z,4.00
2018-02-04T12:22:03.920Z,4.00
2018-02-04T12:24:32.911Z,4.10
2018-02-04T12:27:02.650Z,4.00
2018-02-04T12:29:32.518Z,3.90
2018-02-04T12:32:00.824Z,3.90
2018-02-04T12:34:29.048Z,3.80
2018-02-04T12:36:57.455Z,3.50
2018-02-04T12:39:25.653Z,3.60
2018-02-04T12:41:53.858Z,3.10
2018-02-04T12:44:22.084Z,3.10
2018-02-04T12:46:50.288Z,3.20
2018-02-04T12:49:18.729Z,3.10
2018-02-04T12:51:46.961Z,3.30
2018-02-04T12:54:15.277Z,3.40
2018-02-04T12:56:43.480Z,3.60
2018-02-04T12:59:12.529Z,3.90
2018-02-04T13:01:41.464Z,4.00
2018-02-04T13:04:10.424Z,3.60
2018-02-04T13:06:39.412Z,3.50
2018-02-04T13:09:07.611Z,3.50
2018-02-04T13:11:36.612Z,3.40
2018-02-04T13:14:05.707Z,3.40
2018-02-04T13:16:35.605Z,3.50
2018-02-04T13:19:11.648Z,3.50
2018-02-04T13:21:40.744Z,3.50
2018-02-04T13:24:08.977Z,3.50
2018-02-04T13:26:37.237Z,3.60
2018-02-04T13:29:06.330Z,3.30
2018-02-04T13:31:35.292Z,3.20
2018-02-04T13:34:04.288Z,3.10
2018-02-04T13:36:32.653Z,3.00
2018-02-04T13:39:00.914Z,3.00
2018-02-04T13:41:29.972Z,2.90
2018-02-04T13:43:58.197Z,2.80
2018-02-04T13:46:26.392Z,2.70
2018-02-04T13:48:54.620Z,2.60
2018-02-04T13:51:22.871Z,2.50
2018-02-04T13:53:51.933Z,2.40
2018-02-04T13:56:20.097Z,2.40
2018-02-04T13:58:48.393Z,2.30
2018-02-04T14:01:17.685Z,2.20
2018-02-04T14:03:45.989Z,2.00
2018-02-04T14:06:14.978Z,1.80
2018-02-04T14:08:43.970Z,1.70
2018-02-04T14:11:12.977Z,1.50
2018-02-04T14:13:41.532Z,1.50
2018-02-04T14:16:09.832Z,1.50
2018-02-04T14:18:38.897Z,1.30
2018-02-04T14:21:07.152Z,1.30
2018-02-04T14:23:35.348Z,1.20
2018-02-04T14:26:03.555Z,1.10
2018-02-04T14:28:31.756Z,1.10
2018-02-04T14:31:00.078Z,1.00
2018-02-04T14:33:28.246Z,1.00
2018-02-04T14:35:56.476Z,0.90
2018-02-04T14:38:24.733Z,0.90
2018-02-04T14:40:53.696Z,0.90
2018-02-04T14:43:21.915Z,0.90
2018-02-04T14:45:50.121Z,0.90
2018-02-04T14:48:18.359Z,0.90
2018-02-04T14:50:46.555Z,0.90
2018-02-04T14:53:14.748Z,0.80
2018-02-04T14:55:42.976Z,0.80
2018-02-04T14:58:12.068Z,0.80
2018-02-04T15:00:41.168Z,0.80
2018-02-04T15:03:10.132Z,0.80
2018-02-04T15:05:38.436Z,0.80
2018-02-04T15:08:07.405Z,0.90
2018-02-04T15:10:35.632Z,0.80
2018-02-04T15:13:03.833Z,0.90
2018-02-04T15:15:32.194Z,0.80
2018-02-04T15:18:00.388Z,0.80
2018-02-04T15:20:28.712Z,0.80
2018-02-04T15:22:58.374Z,0.70
2018-02-04T15:25:26.557Z,0.70
2018-02-04T15:27:54.872Z,0.70
2018-02-04T15:30:23.865Z,0.70
2018-02-04T15:32:52.829Z,0.70
2018-02-04T15:35:21.071Z,0.70
2018-02-04T15:37:49.269Z,0.70
2018-02-04T15:40:17.492Z,0.70
2018-02-04T15:42:46.488Z,0.70
2018-02-04T15:45:15.476Z,0.70
2018-02-04T15:47:44.464Z,0.60
2018-02-04T15:50:13.453Z,0.60
2018-02-04T15:52:42.457Z,0.60
2018-02-04T15:55:11.424Z,0.50
2018-02-04T15:57:39.720Z,0.50
2018-02-04T16:00:08.793Z,0.40
2018-02-04T16:02:36.965Z,0.40
2018-02-04T16:05:05.784Z,0.40
2018-02-04T16:07:34.744Z,0.30
2018-02-04T16:10:02.982Z,0.30
2018-02-04T16:12:31.180Z,0.30
2018-02-04T16:14:59.499Z,0.20
2018-02-04T16:17:28.457Z,0.20
2018-02-04T16:19:56.680Z,0.20
2018-02-04T16:22:25.224Z,0.20
2018-02-04T16:24:53.452Z,0.20
2018-02-04T16:27:21.945Z,0.10
2018-02-04T16:29:50.173Z,0.10
2018-02-04T16:32:19.258Z,0.10
2018-02-04T16:34:47.492Z,0.10
2018-02-04T16:37:15.708Z,0.10
2018-02-04T16:39:43.993Z,0.00
2018-02-04T16:42:12.326Z,0.00
2018-02-04T16:44:41.850Z,0.00
2018-02-04T16:47:10.642Z,-0.10
2018-02-04T16:49:38.996Z,0.00
2018-02-04T16:52:08.054Z,0.30
2018-02-04T16:54:37.082Z,0.20
2018-02-04T16:57:05.285Z,0.20
2018-02-04T16:59:33.512Z,0.10
2018-02-04T17:02:02.636Z,0.00
2018-02-04T17:04:30.939Z,-0.10
2018-02-04T17:06:59.174Z,-0.10
2018-02-04T17:09:27.805Z,-0.10
2018-02-04T17:11:56.127Z,-0.10
2018-02-04T17:14:25.262Z,-0.10
2018-02-04T17:16:53.610Z,-0.10
2018-02-04T17:19:21.832Z,-0.10
2018-02-04T17:21:50.464Z,-0.10
2018-02-04T17:24:18.745Z,-0.10
2018-02-04T17:26:47.084Z,-0.10
2018-02-04T17:29:15.413Z,-0.10
2018-02-04T17:31:44.393Z,-0.10
2018-02-04T17:34:12.670Z,-0.10
2018-02-04T17:36:40.905Z,-0.10
2018-02-04T17:39:09.114Z,-0.10
2018-02-04T17:41:37.391Z,-0.20
2018-02-04T17:44:06.352Z,-0.20
2018-02-04T17:46:34.654Z,-0.20
2018-02-04T17:49:03.650Z,-0.20
2018-02-04T17:51:32.645Z,-0.20
2018-02-04T17:54:00.856Z,-0.20
2018-02-04T17:56:29.083Z,-0.30
2018-02-04T17:58:58.131Z,-0.20
2018-02-04T18:01:26.359Z,-0.20
2018-02-04T18:03:55.338Z,-0.20
2018-02-04T18:06:24.338Z,-0.20
2018-02-04T18:08:53.345Z,-0.20
2018-02-04T18:11:21.622Z,-0.20
2018-02-04T18:13:50.581Z,-0.30
2018-02-04T18:16:18.935Z,-0.30
2018-02-04T18:18:47.166Z,-0.20
2018-02-04T18:21:16.165Z,-0.20
2018-02-04T18:23:44.436Z,-0.20
2018-02-04T18:26:12.716Z,-0.20
2018-02-04T18:28:40.981Z,-0.30
2018-02-04T18:31:10.009Z,-0.30
2018-02-04T18:33:38.490Z,-0.30
2018-02-04T18:36:06.715Z,-0.30
2018-02-04T18:38:34.969Z,-0.30
2018-02-04T18:41:03.192Z,-0.20
2018-02-04T18:43:32.193Z,-0.30
2018-02-04T18:46:00.469Z,-0.30
2018-02-04T18:48:35.407Z,-0.30
2018-02-04T18:51:04.876Z,-0.20
2018-02-04T18:53:33.168Z,-0.20
2018-02-04T18:56:02.192Z,-0.20
2018-02-04T18:58:30.400Z,-0.20
2018-02-04T19:01:02.333Z,-0.30
2018-02-04T19:03:30.656Z,-0.20
2018-02-04T19:06:00.491Z,-0.20
2018-02-04T19:08:29.480Z,-0.20
2018-02-04T19:10:58.462Z,-0.20
2018-02-04T19:13:27.676Z,-0.20
2018-02-04T19:15:56.685Z,-0.20
2018-02-04T19:18:27.356Z,-0.30
2018-02-04T19:20:55.564Z,-0.20
2018-02-04T19:23:23.865Z,-0.20
2018-02-04T19:25:52.104Z,-0.30
2018-02-04T19:28:20.498Z,-0.20
2018-02-04T19:30:51.500Z,-0.20
2018-02-04T19:33:19.841Z,-0.30
2018-02-04T19:35:48.104Z,-0.20
2018-02-04T19:38:16.340Z,-0.20
2018-02-04T19:40:44.664Z,-0.20
2018-02-04T19:43:12.960Z,-0.20
2018-02-04T19:45:41.164Z,-0.20
2018-02-04T19:48:09.369Z,-0.20
2018-02-04T19:50:37.608Z,-0.20
2018-02-04T19:53:06.667Z,-0.30
2018-02-04T19:55:34.909Z,-0.30
2018-02-04T19:58:04.704Z,-0.20
2018-02-04T20:00:33.205Z,-0.20
2018-02-04T20:03:01.559Z,-0.20
2018-02-04T20:05:29.788Z,-0.30
2018-02-04T20:07:58.079Z,-0.30
2018-02-04T20:10:26.280Z,-0.30
2018-02-04T20:12:55.270Z,-0.30
2018-02-04T20:15:23.515Z,-0.30
2018-02-04T20:17:51.720Z,-0.30
2018-02-04T20:20:19.993Z,-0.30
2018-02-04T20:22:48.272Z,-0.30
2018-02-04T20:25:16.564Z,-0.30
2018-02-04T20:27:44.893Z,-0.30
2018-02-04T20:30:13.166Z,-0.30
2018-02-04T20:32:53.177Z,-0.30
2018-02-04T20:35:21.488Z,-0.30
2018-02-04T20:37:50.465Z,-0.30
2018-02-04T20:40:19.478Z,-0.20
2018-02-04T20:42:47.809Z,-0.20
2018-02-04T20:45:16.090Z,-0.20
2018-02-04T20:47:44.371Z,-0.20
2018-02-04T20:50:12.584Z,-0.20
2018-02-04T20:52:40.876Z,-0.20
2018-02-04T20:55:09.145Z,-0.30
2018-02-04T20:57:38.033Z,-0.20
2018-02-04T21:00:07.009Z,-0.20
2018-02-04T21:02:36.017Z,-0.20
2018-02-04T21:05:04.295Z,-0.20
2018-02-04T21:07:33.301Z,-0.10
2018-02-04T21:10:01.599Z,-0.20
2018-02-04T21:12:29.823Z,-0.10
2018-02-04T21:14:59.084Z,-0.10
2018-02-04T21:17:27.332Z,-0.20
2018-02-04T21:19:55.528Z,-0.10
2018-02-04T21:22:23.764Z,-0.10
2018-02-04T21:24:52.034Z,-0.10
2018-02-04T21:27:20.291Z,-0.10
2018-02-04T21:29:48.584Z,-0.10
2018-02-04T21:32:16.865Z,-0.10
2018-02-04T21:34:45.873Z,-0.20
2018-02-04T21:37:14.084Z,-0.20
2018-02-04T21:39:42.488Z,-0.20
2018-02-04T21:42:10.784Z,-0.20
2018-02-04T21:44:39.020Z,-0.20
2018-02-04T21:47:07.287Z,-0.10
2018-02-04T21:49:35.554Z,-0.10
2018-02-04T21:52:03.817Z,-0.10
2018-02-04T21:54:32.103Z,-0.20
2018-02-04T21:57:00.419Z,-0.20
2018-02-04T21:59:28.641Z,-0.30
2018-02-04T22:01:56.970Z,-0.30
2018-02-04T22:04:25.165Z,-0.20
2018-02-04T22:06:54.182Z,-0.10
2018-02-04T22:09:22.436Z,-0.10
2018-02-04T22:11:50.716Z,-0.10
2018-02-04T22:14:18.993Z,-0.10
2018-02-04T22:16:47.230Z,-0.10
2018-02-04T22:19:16.257Z,-0.10
2018-02-04T22:21:44.471Z,-0.10
2018-02-04T22:24:12.679Z,-0.10
2018-02-04T22:26:40.984Z,0.00
2018-02-04T22:29:09.217Z,0.00
2018-02-04T22:31:37.453Z,-0.10
2018-02-04T22:34:05.708Z,-0.20
2018-02-04T22:36:33.936Z,-0.30
2018-02-04T22:39:02.188Z,-0.30
2018-02-04T22:41:30.396Z,-0.30
2018-02-04T22:43:58.717Z,-0.40
2018-02-04T22:46:26.965Z,-0.40
2018-02-04T22:48:55.221Z,-0.40
2018-02-04T22:51:23.460Z,-0.40
2018-02-04T22:53:51.684Z,-0.40
2018-02-04T22:56:19.990Z,-0.50
2018-02-04T22:58:48.202Z,-0.50
2018-02-04T23:01:16.442Z,-0.60
2018-02-04T23:03:44.652Z,-0.60
2018-02-04T23:06:12.892Z,-0.60
2018-02-04T23:08:41.191Z,-0.60
2018-02-04T23:11:09.445Z,-0.60
2018-02-04T23:13:37.792Z,-0.60
2018-02-04T23:16:07.336Z,-0.60
2018-02-04T23:18:35.581Z,-0.60
2018-02-04T23:21:03.817Z,-0.50
2018-02-04T23:23:32.055Z,-0.50
2018-02-04T23:26:00.705Z,-0.50
2018-02-04T23:28:29.012Z,-0.50
2018-02-04T23:30:57.289Z,-0.40
2018-02-04T23:33:25.638Z,-0.40
2018-02-04T23:35:53.848Z,-0.40
2018-02-04T23:38:22.089Z,-0.30
2018-02-04T23:40:50.716Z,-0.30
2018-02-04T23:43:18.984Z,-0.30
